Detall de PIREP

Printer-friendly versionPDF version

[2015/08/04 07:32:00]
Flight IATA:CT1005
Pilot Number:011
Company ICAO:CAT
Aircraft Type:B738/F
PAX:160
Departing Airport: LKKV
Destination Airport: LCPH
Alternate Airport:LCLK
Online: VATSIM
Route:BALTU DCT VOZ UL993 IVOLI UZ650 BERVA UP974 TABIN UL616 KEROP UP192 OKLOP UN739 NISVA UN131 KULAR UT39 TOMBI UM855 DASNI UW195 TOBAL
Flight Level:F380
No Slew and time accel
No pause
Crash detect
Detect pilot in Cockpit between each 30 and 45 minutes
07:32 Zero fuel Weight: 136991 Lbs, Fuel Weight: 24750 Lbs
07:32 VATSIM:LKKV 040700Z 10007KT 080V140 CAVOK 23/14 Q1017
07:32 VATSIM:LCPH 040700Z 27010KT CAVOK 31/27 Q1008
07:32 Parking Brakes off
07:45 Take-off
07:45 Take off Weight: 160922 Lbs
07:45 Wind: 123º @ 007 Knots Heading: 113º
07:45 POS N50º 12´ 00´´ E012º 55´ 32´´
07:45 Gear Up: 166 Knots
07:45 Flaps:5 at 166 Knots
07:46 Flaps:4 at 179 Knots
07:46 Flaps:3 at 207 Knots
07:47 Flaps:2 at 217 Knots
07:47 Flaps:1 at 219 Knots
07:47 Flaps:0 at 221 Knots
08:00 Wind:124º@026 Knots Heading: 119º Ground Speed: 319 Knots Altitude 35137 ft
08:02 TOC
08:02 Fuel Weight: 20360 Lb
08:15 Wind:124º@012 Knots Heading: 117º Ground Speed: 458 Knots Altitude 38106 ft
08:30 Wind:134º@003 Knots Heading: 154º Ground Speed: 469 Knots Altitude 38110 ft
08:45 Wind:085º@013 Knots Heading: 153º Ground Speed: 464 Knots Altitude 38110 ft
09:00 UTC Jump: added 1 Hour to Log
09:00 Wind:108º@011 Knots Heading: 146º Ground Speed: 461 Knots Altitude 38087 ft
09:00 UTC Jump: removed 1 Hour from Log
09:15 Wind:099º@034 Knots Heading: 141º Ground Speed: 453 Knots Altitude 38113 ft
09:30 Wind:084º@027 Knots Heading: 126º Ground Speed: 460 Knots Altitude 38001 ft
09:45 Wind:029º@029 Knots Heading: 130º Ground Speed: 483 Knots Altitude 37956 ft
10:00 Wind:002º@019 Knots Heading: 128º Ground Speed: 490 Knots Altitude 37985 ft
10:15 Wind:193º@026 Knots Heading: 147º Ground Speed: 465 Knots Altitude 37903 ft
10:20 TOD
10:20 Fuel Weight: 9287 Lb
10:30 Wind:239º@025 Knots Heading: 124º Ground Speed: 394 Knots Altitude 22001 ft
10:40 Flaps:1 at 260 Knots
10:40 Flaps:2 at 259 Knots
10:40 Flaps:3 at 258 Knots
10:43 Flaps:4 at 179 Knots
10:43 Flaps:5 at 175 Knots
10:43 Flaps:6 at 174 Knots
10:43 Gear Down: 173 Knots
10:45 Wind:269º@026 Knots Heading: 130º Ground Speed: 199 Knots Altitude 4406 ft
10:48 Flaps:7 at 156 Knots
10:48 Flaps:8 at 154 Knots
10:54 TouchDown:Rate -264 ft/min Speed: 134 Knots
10:54 VATSIM:LCPH 041030Z 27014KT 9999 FEW030 33/28 Q1007
10:54 Land
10:54 Wind:266º@014 Knots
10:54 Heading: 295º
10:54 Flight Duration: 03:09
10:54 Landing Weight: 143804 Lbs
10:54 POS N34º 43´ 14´´ E032º 28´ 47´´
10:57Parking brakes on
10:57 Block to Block Duration: 03:25
10:57 Final Fuel: 6547 Lbls
10:57 Spent Fuel: 18203 Lbls
10:57 Flight Length: 1209 NM
10:57 TOD Land Length: 175 NM

Exportar CSV

Powered by Drupal - Modified by Danger4k